Real del Padre, Argentina
Current Conditions -  °F | °C
As of 11:00 PM on Sunday 25 Jan 2015 (Local Time) from SAME Reporting Station
Thunderstorm Thunderstorm  
Wind Chill: 86°   Ceiling: Unl
Heat Index: 87°   Visibility: 6mi
Dew Point: 64°   Wind: 0mph
Humidity: 48%   Direction: NA
Pressure: 29.74"   Gusts: NA
Location:  34.83°S, 67.77°W
Report Text: SAME 260200Z 00000KT 9999 VCTS SCT040FEW045CB 30/18 Q1007
Loading
Personal Weather Stations






























Interactive Weather Map New forecast layout! Learn more

10-Day Weather Forecast

Advertisements
Track Severe Weather on mobile